This is the latest recevied weather packets stored in our database for station/object KE5BM-13. If no packets are shown the sender has not sent any weather packets the latest 10 day(s).
| Time | Temp. | Humidity | Pressure | Rain* | Wind** | Luminosity | Snow |
|---|---|---|---|---|---|---|---|
| 1777303290 | 13.33° C | 60% | 1023.4 hPa | 0 mm | - | - | - |
| 1777302989 | 13.89° C | 60% | 1023.5 hPa | 0 mm | - | - | - |
| 1777302686 | 13.89° C | 60% | 1023.4 hPa | 0 mm | - | - | - |
| 1777302386 | 13.33° C | 61% | 1023.4 hPa | 0 mm | - | - | - |
| 1777302086 | 13.33° C | 60% | 1023.4 hPa | 0 mm | - | - | - |
| 1777301787 | 13.89° C | 61% | 1023.5 hPa | 0 mm | - | - | - |
| 1777301489 | 13.89° C | 62% | 1023.5 hPa | 0 mm | - | - | - |
| 1777301183 | 13.89° C | 60% | 1023.3 hPa | 0 mm | - | - | - |
| 1777300882 | 14.44° C | 58% | 1023.2 hPa | 0 mm | - | - | - |
| 1777300582 | 14.44° C | 60% | 1023.3 hPa | 0 mm | - | - | - |
| 1777300281 | 13.89° C | 61% | 1023.3 hPa | 0 mm | - | - | - |
| 1777299981 | 14.44° C | 60% | 1023.3 hPa | 0 mm | - | - | - |
| 1777299681 | 14.44° C | 57% | 1023.3 hPa | 0 mm | - | - | - |
| 1777299380 | 13.89° C | 59% | 1023.1 hPa | 0 mm | - | - | - |
| 1777299082 | 13.33° C | 62% | 1023.2 hPa | 0 mm | - | - | - |
| 1777298779 | 13.33° C | 63% | 1023.1 hPa | 0 mm | - | - | - |
| 1777298478 | 13.33° C | 63% | 1023.1 hPa | 0 mm | - | - | - |
| 1777298179 | 12.78° C | 64% | 1023.1 hPa | 0 mm | - | - | - |
| 1777297875 | 12.78° C | 64% | 1023.1 hPa | 0 mm | - | - | - |
| 1777297577 | 12.78° C | 64% | 1023.1 hPa | 0 mm | - | - | - |
| 1777297275 | 12.78° C | 65% | 1023.1 hPa | 0 mm | - | - | - |
| 1777296975 | 12.78° C | 64% | 1023.1 hPa | 0 mm | - | - | - |
| 1777296675 | 13.33° C | 63% | 1023.1 hPa | 0 mm | - | - | - |
| 1777296375 | 12.78° C | 65% | 1023.1 hPa | 0 mm | - | - | - |
| 1777296072 | 12.22° C | 66% | 1022.9 hPa | 0 mm | - | - | - |
* Rain latest hour (hover to see other rain measurements)
** Current wind speed in m/s (hover to see current wind gust speed)